Time;durP1;ratioP1;P1;durP2;ratioP2;P2;SDS_P1;SDS_P2;PMS_P1;PMS_P2;Temp;Humidity;BMP_temperature;BMP_pressure;BME280_temperature;BME280_humidity;BME280_pressure;Samples;Min_cycle;Max_cycle;Signal;HPM_P1;HPM_P2
2021/12/11 00:00:12;;;;;;;68.22;23.85;;;;;;;6.56;77.65;100678.66;5053924;28;20515;-60
2021/12/11 00:02:37;;;;;;;68.88;23.95;;;;;;;6.59;77.37;100675.28;5050946;28;20048;-60
2021/12/11 00:05:03;;;;;;;65.35;23.73;;;;;;;6.57;77.54;100675.22;5045247;28;20694;-60
2021/12/11 00:07:40;;;;;;;64.72;23.17;;;;;;;6.59;77.64;100688.22;5043106;28;20049;-61
2021/12/11 00:10:17;;;;;;;64.00;23.02;;;;;;;6.62;77.45;100680.50;5060118;28;20487;-61
2021/12/11 00:12:49;;;;;;;62.65;22.30;;;;;;;6.62;77.61;100693.47;5038760;28;20051;-62
2021/12/11 00:15:28;;;;;;;62.42;21.40;;;;;;;6.62;77.35;100699.53;5040670;28;20215;-61
2021/12/11 00:17:58;;;;;;;58.88;22.35;;;;;;;6.64;77.31;100710.81;5047166;28;20036;-61
2021/12/11 00:20:27;;;;;;;59.40;22.42;;;;;;;6.61;77.20;100715.91;5045261;28;20072;-61
2021/12/11 00:22:53;;;;;;;57.05;22.27;;;;;;;6.62;77.45;100721.97;5050974;28;20036;-61
2021/12/11 00:25:18;;;;;;;58.63;22.52;;;;;;;6.62;77.49;100729.72;5052227;28;20043;-61
2021/12/11 00:27:46;;;;;;;58.70;21.83;;;;;;;6.62;77.50;100734.91;5048165;28;20249;-62
2021/12/11 00:30:24;;;;;;;59.65;23.10;;;;;;;6.62;77.45;100738.38;5058503;28;20340;-60
2021/12/11 00:32:58;;;;;;;57.78;22.45;;;;;;;6.64;77.18;100739.31;5059347;28;20059;-60
2021/12/11 00:35:24;;;;;;;62.40;22.85;;;;;;;6.64;77.46;100741.91;5051040;28;20044;-60
2021/12/11 00:37:49;;;;;;;55.17;21.02;;;;;;;6.63;77.33;100758.28;5052061;28;21513;-60
2021/12/11 00:40:20;;;;;;;54.33;20.77;;;;;;;6.63;77.48;100755.69;5055586;28;20211;-61
2021/12/11 00:42:51;;;;;;;64.00;22.33;;;;;;;6.64;77.52;100766.94;5051870;28;20090;-61
2021/12/11 00:45:22;;;;;;;55.97;20.98;;;;;;;6.66;77.24;100766.13;5036165;28;20086;-61
2021/12/11 00:47:57;;;;;;;62.47;21.88;;;;;;;6.66;77.40;100773.88;5065252;27;20116;-61
2021/12/11 00:50:29;;;;;;;55.50;21.65;;;;;;;6.64;77.07;100777.28;5052462;28;20544;-61
2021/12/11 00:52:59;;;;;;;59.25;22.00;;;;;;;6.63;77.04;100784.19;5055158;28;20419;-60
2021/12/11 00:55:34;;;;;;;56.00;21.65;;;;;;;6.61;77.43;100784.97;5035294;28;20130;-60
2021/12/11 00:58:12;;;;;;;60.63;22.10;;;;;;;6.62;77.36;100791.91;5041369;28;20430;-61
2021/12/11 01:00:54;;;;;;;58.13;21.15;;;;;;;6.64;77.52;100792.84;5045611;28;20486;-60
2021/12/11 01:03:43;;;;;;;56.35;20.98;;;;;;;6.67;77.40;100795.50;5056303;28;20035;-60
2021/12/11 01:06:22;;;;;;;60.17;21.55;;;;;;;6.67;77.76;100813.63;5040425;28;20101;-59
2021/12/11 01:08:56;;;;;;;52.80;19.52;;;;;;;6.72;77.37;100807.72;5027671;28;20051;-60
2021/12/11 01:11:26;;;;;;;55.28;20.55;;;;;;;6.71;77.21;100823.25;5046296;28;20189;-60
2021/12/11 01:14:15;;;;;;;54.38;21.05;;;;;;;6.66;77.43;100825.69;5057351;28;20580;-60
2021/12/11 01:16:43;;;;;;;55.13;21.58;;;;;;;6.64;77.48;100826.50;5055062;28;20132;-60
2021/12/11 01:19:16;;;;;;;57.08;21.05;;;;;;;6.67;77.70;100826.56;5050038;28;20055;-61
2021/12/11 01:21:54;;;;;;;59.60;21.73;;;;;;;6.64;77.29;100829.97;5050275;28;20524;-61
2021/12/11 01:24:31;;;;;;;64.10;22.13;;;;;;;6.66;77.34;100835.16;5053727;28;20040;-61
2021/12/11 01:27:00;;;;;;;61.75;21.45;;;;;;;6.66;77.50;100841.25;5048285;28;20518;-61
2021/12/11 01:29:28;;;;;;;49.67;19.75;;;;;;;6.71;77.49;100838.81;5052922;28;20098;-61
2021/12/11 01:31:56;;;;;;;57.65;21.15;;;;;;;6.68;77.64;100849.94;5049500;28;20099;-59
2021/12/11 01:34:22;;;;;;;55.63;20.63;;;;;;;6.68;77.58;100849.94;5053298;28;20389;-59
2021/12/11 01:36:47;;;;;;;50.63;19.65;;;;;;;6.69;77.74;100851.69;5055595;28;20048;-61
2021/12/11 01:39:18;;;;;;;52.65;19.88;;;;;;;6.70;77.50;100865.53;5037835;28;20127;-61
2021/12/11 01:41:44;;;;;;;57.85;21.20;;;;;;;6.69;77.51;100863.78;5050721;28;20048;-62
2021/12/11 01:44:14;;;;;;;49.28;19.92;;;;;;;6.64;77.41;100863.66;5041849;28;20266;-60
2021/12/11 01:46:40;;;;;;;53.55;20.27;;;;;;;6.63;77.45;100877.44;5055092;28;20043;-60
2021/12/11 01:49:10;;;;;;;61.05;20.13;;;;;;;6.65;77.29;100880.91;5064464;28;20040;-61
2021/12/11 01:51:59;;;;;;;55.35;19.98;;;;;;;6.60;77.56;100885.09;5042733;28;20039;-61
2021/12/11 01:54:25;;;;;;;53.65;19.52;;;;;;;6.56;77.44;100895.34;5053136;28;20065;-61
2021/12/11 01:56:59;;;;;;;54.65;20.48;;;;;;;6.48;77.01;100901.16;5053227;28;20131;-61
2021/12/11 01:59:38;;;;;;;52.70;20.08;;;;;;;6.42;77.32;100905.25;5048720;28;20202;-63
2021/12/11 02:02:11;;;;;;;52.83;19.15;;;;;;;6.33;77.48;100911.06;5067073;28;20036;-61
2021/12/11 02:04:41;;;;;;;46.50;18.95;;;;;;;6.27;77.51;100907.41;5047034;28;20860;-61
2021/12/11 02:07:11;;;;;;;50.92;18.63;;;;;;;6.23;77.42;100909.00;5051236;28;20614;-60
2021/12/11 02:09:38;;;;;;;52.28;19.67;;;;;;;6.19;77.31;100908.88;5038108;28;21237;-61
2021/12/11 02:12:09;;;;;;;55.47;19.52;;;;;;;6.18;77.49;100917.44;5039798;28;20036;-60
2021/12/11 02:14:41;;;;;;;63.72;21.65;;;;;;;6.18;77.61;100918.34;5046928;28;20039;-60
2021/12/11 02:17:16;;;;;;;65.25;21.35;;;;;;;6.25;77.18;100927.19;5053865;28;20048;-60
2021/12/11 02:19:43;;;;;;;58.17;20.30;;;;;;;6.23;77.47;100937.47;5028379;28;20795;-61
2021/12/11 02:22:12;;;;;;;62.95;20.38;;;;;;;6.24;77.42;100943.53;5051007;28;20040;-60
2021/12/11 02:24:51;;;;;;;60.30;20.25;;;;;;;6.30;77.58;100948.91;5033861;28;20063;-60
2021/12/11 02:27:27;;;;;;;58.38;19.48;;;;;;;6.32;77.95;100955.03;5046706;28;20045;-61
2021/12/11 02:30:16;;;;;;;60.05;20.25;;;;;;;6.33;77.70;100951.59;5050269;28;20044;-61
2021/12/11 02:32:54;;;;;;;56.88;19.65;;;;;;;6.28;77.42;100955.78;5054575;28;20044;-61
2021/12/11 02:35:57;;;;;;;58.00;20.17;;;;;;;6.20;77.57;100959.81;5046934;28;20225;-61
2021/12/11 02:38:33;;;;;;;53.15;19.67;;;;;;;6.10;77.65;100964.66;5054705;28;20051;-60
2021/12/11 02:41:28;;;;;;;60.55;19.88;;;;;;;6.04;77.28;100963.59;5029862;28;20127;-61
2021/12/11 02:44:00;;;;;;;61.20;20.35;;;;;;;5.98;77.61;100969.44;5055869;28;20229;-61
2021/12/11 02:46:43;;;;;;;63.83;21.20;;;;;;;5.90;77.59;100976.09;5023586;28;20146;-62
2021/12/11 02:49:23;;;;;;;57.40;20.15;;;;;;;5.86;77.23;100979.34;5054787;28;20155;-61
2021/12/11 02:52:00;;;;;;;59.92;21.05;;;;;;;5.80;77.43;100979.16;5024982;28;20055;-60
2021/12/11 02:54:31;;;;;;;57.25;19.17;;;;;;;5.77;77.30;100988.53;5058142;28;20039;-60
2021/12/11 02:57:14;;;;;;;57.97;20.60;;;;;;;5.68;77.35;100979.59;5057698;28;20049;-59
2021/12/11 02:59:44;;;;;;;42.28;17.27;;;;;;;5.65;77.20;100982.09;5036976;28;20803;-60
2021/12/11 03:02:17;;;;;;;57.30;18.65;;;;;;;5.62;76.85;100989.75;5042527;28;20071;-60
2021/12/11 03:04:54;;;;;;;51.75;19.15;;;;;;;5.61;77.23;100990.56;5053429;28;20507;-60
2021/12/11 03:07:34;;;;;;;65.60;21.48;;;;;;;5.59;77.54;100986.19;5058821;28;20544;-61
2021/12/11 03:09:59;;;;;;;61.03;18.83;;;;;;;5.65;77.72;100988.97;5044221;28;20050;-61
2021/12/11 03:12:25;;;;;;;65.35;20.60;;;;;;;5.72;77.53;100980.59;5047918;28;20071;-61
2021/12/11 03:14:51;;;;;;;70.60;22.63;;;;;;;5.81;77.61;100990.38;5043271;28;20040;-62
2021/12/11 03:17:17;;;;;;;72.93;21.88;;;;;;;5.90;77.69;100985.56;5056051;28;20600;-60
2021/12/11 03:19:45;;;;;;;71.32;22.23;;;;;;;5.93;77.59;100983.94;5042252;28;20787;-61
2021/12/11 03:22:15;;;;;;;63.60;20.42;;;;;;;6.04;77.67;100986.88;5047993;28;20073;-60
2021/12/11 03:24:41;;;;;;;70.25;22.08;;;;;;;6.07;77.53;100989.59;5064618;28;20028;-60
2021/12/11 03:27:06;;;;;;;67.35;21.35;;;;;;;6.06;77.51;100995.59;5052205;28;20134;-60
2021/12/11 03:29:32;;;;;;;55.83;19.15;;;;;;;6.04;77.54;101000.69;5051587;28;20459;-60
2021/12/11 03:31:58;;;;;;;66.85;20.55;;;;;;;6.02;77.58;101002.38;5053824;28;20035;-60
2021/12/11 03:34:27;;;;;;;68.05;22.20;;;;;;;6.02;77.54;101009.25;5053383;28;20789;-61
2021/12/11 03:36:53;;;;;;;70.50;22.38;;;;;;;6.05;77.58;101010.22;5060657;28;20105;-60
2021/12/11 03:39:22;;;;;;;64.75;21.38;;;;;;;6.08;77.82;101015.53;5051994;28;20043;-61
2021/12/11 03:41:49;;;;;;;58.40;19.92;;;;;;;6.13;77.59;101007.91;5049274;28;20048;-61
2021/12/11 03:44:16;;;;;;;63.13;20.02;;;;;;;6.18;77.28;101021.00;5059689;28;20587;-61
2021/12/11 03:46:44;;;;;;;69.75;22.27;;;;;;;6.18;77.46;101021.00;5044816;28;20889;-60
2021/12/11 03:49:15;;;;;;;65.18;21.42;;;;;;;6.15;77.58;101013.16;5062848;28;20101;-60
2021/12/11 03:51:44;;;;;;;65.15;20.48;;;;;;;6.20;77.65;101016.75;5048962;28;20728;-60
2021/12/11 03:54:13;;;;;;;66.30;21.38;;;;;;;6.20;77.47;101016.75;5044089;28;20041;-60
2021/12/11 03:56:40;;;;;;;81.57;23.63;;;;;;;6.27;77.53;101019.59;5044768;28;20056;-60
2021/12/11 03:59:10;;;;;;;77.35;21.67;;;;;;;6.30;77.58;101022.28;5056584;28;20442;-60
2021/12/11 04:01:41;;;;;;;63.97;20.63;;;;;;;6.32;77.69;101018.03;5041940;28;20056;-60
2021/12/11 04:04:15;;;;;;;73.32;22.55;;;;;;;6.35;77.87;101030.19;5037046;28;20426;-61
2021/12/11 04:06:40;;;;;;;73.63;21.35;;;;;;;6.38;77.88;101018.25;5042856;28;20459;-60
2021/12/11 04:09:09;;;;;;;64.63;19.73;;;;;;;6.43;77.62;101021.84;5055101;28;20625;-61
2021/12/11 04:11:36;;;;;;;74.00;22.95;;;;;;;6.44;77.45;101027.91;5038770;28;20488;-60
2021/12/11 04:14:07;;;;;;;74.30;23.15;;;;;;;6.43;77.75;101027.03;5026497;28;20048;-60
2021/12/11 04:16:36;;;;;;;75.90;22.80;;;;;;;6.44;77.66;101028.81;5053416;28;20048;-59
2021/12/11 04:19:04;;;;;;;70.35;22.55;;;;;;;6.45;77.59;101029.69;5054961;28;20101;-60
2021/12/11 04:21:29;;;;;;;63.10;21.00;;;;;;;6.43;77.73;101037.41;5021102;28;20553;-60
2021/12/11 04:23:55;;;;;;;61.80;20.92;;;;;;;6.45;77.86;101029.69;5045241;28;20086;-60
2021/12/11 04:26:21;;;;;;;68.15;21.25;;;;;;;6.46;77.58;101034.88;5053654;28;20628;-60
2021/12/11 04:28:47;;;;;;;69.32;21.40;;;;;;;6.53;77.78;101042.88;5041354;28;20040;-60
2021/12/11 04:31:16;;;;;;;58.40;19.55;;;;;;;6.53;77.82;101048.91;5065989;27;20453;-60
2021/12/11 04:33:45;;;;;;;65.03;19.85;;;;;;;6.55;77.78;101044.69;5022967;28;20131;-59
2021/12/11 04:36:15;;;;;;;62.08;19.73;;;;;;;6.57;77.77;101053.38;5060983;28;20460;-59
2021/12/11 04:38:42;;;;;;;54.97;19.05;;;;;;;6.60;77.79;101053.47;5053780;28;20674;-60
2021/12/11 04:41:09;;;;;;;60.17;18.88;;;;;;;6.61;77.65;101049.16;5052781;28;20466;-62
2021/12/11 04:43:35;;;;;;;59.55;19.17;;;;;;;6.63;77.50;101058.75;5046422;28;20040;-60
2021/12/11 04:46:06;;;;;;;53.67;17.55;;;;;;;6.70;77.53;101060.72;5031211;28;20546;-61
2021/12/11 04:48:53;;;;;;;46.75;15.32;;;;;;;6.75;77.44;101066.94;5053176;28;20577;-59
2021/12/11 04:51:29;;;;;;;35.47;9.75;;;;;;;6.86;77.62;101056.88;5059091;28;20044;-59
2021/12/11 04:54:11;;;;;;;23.13;7.00;;;;;;;6.92;77.83;101064.84;5053048;28;20049;-60
2021/12/11 05:05:20;;;;;;;23.85;1.60;;;;;;;7.24;77.38;101071.91;5052556;28;20481;-60
2021/12/11 05:10:32;;;;;;;10.30;1.25;;;;;;;7.47;77.28;101069.97;5054327;28;20042;-60
2021/12/11 05:12:58;;;;;;;13.30;1.30;;;;;;;7.57;76.72;101087.56;5046316;28;20052;-60
2021/12/11 05:15:35;;;;;;;11.60;1.40;;;;;;;7.67;76.92;101084.41;5056387;28;20048;-60
2021/12/11 05:18:05;;;;;;;10.63;1.20;;;;;;;7.71;76.72;101091.44;5047401;28;20179;-60
2021/12/11 05:20:32;;;;;;;10.00;1.50;;;;;;;7.84;76.28;101094.38;5064432;28;20052;-60
2021/12/11 05:22:58;;;;;;;14.10;1.52;;;;;;;7.87;76.20;101094.47;5055810;28;20040;-60
2021/12/11 05:25:24;;;;;;;9.52;1.15;;;;;;;7.98;76.00;101085.25;5052954;28;20237;-60
2021/12/11 05:27:49;;;;;;;16.48;1.55;;;;;;;8.07;75.64;101093.28;5042497;28;20044;-60
2021/12/11 05:30:23;;;;;;;10.57;1.27;;;;;;;8.12;75.13;101109.84;5058372;28;20073;-60
2021/12/11 05:32:49;;;;;;;11.52;1.58;;;;;;;8.17;74.85;101105.69;5051180;28;20046;-61
2021/12/11 05:35:15;;;;;;;12.20;1.35;;;;;;;8.13;74.70;101109.91;5056673;28;20438;-61
2021/12/11 05:37:41;;;;;;;10.13;1.50;;;;;;;8.22;74.39;101111.00;5035193;28;20691;-61
2021/12/11 05:40:08;;;;;;;15.05;1.55;;;;;;;8.29;74.20;101113.81;5045765;28;20041;-61
2021/12/11 05:42:33;;;;;;;14.02;1.33;;;;;;;8.30;73.96;101115.56;5049146;28;20064;-60
2021/12/11 05:44:59;;;;;;;8.52;1.27;;;;;;;8.22;74.42;101106.69;5053514;28;21003;-60
2021/12/11 05:47:29;;;;;;;10.88;1.30;;;;;;;8.18;74.50;101119.53;5041538;28;20047;-62
2021/12/11 05:49:57;;;;;;;13.82;1.58;;;;;;;8.07;74.17;101132.22;5067533;28;20480;-61
2021/12/11 05:52:23;;;;;;;7.82;1.33;;;;;;;7.92;74.39;101132.69;5045086;28;20020;-60
2021/12/11 05:54:49;;;;;;;10.88;1.52;;;;;;;7.85;74.50;101137.66;5053932;28;20054;-60
2021/12/11 05:57:16;;;;;;;13.80;1.85;;;;;;;7.76;75.09;101133.06;5039174;28;20045;-60
2021/12/11 05:59:43;;;;;;;11.27;1.73;;;;;;;7.70;75.11;101140.69;5041221;28;20833;-60
2021/12/11 06:02:25;;;;;;;11.32;1.67;;;;;;;7.77;75.25;101150.41;5055047;28;20064;-61
2021/12/11 06:04:54;;;;;;;10.52;1.30;;;;;;;7.79;75.16;101160.84;5057118;28;20543;-60
2021/12/11 06:07:22;;;;;;;10.43;1.63;;;;;;;7.82;75.10;101159.22;5052033;28;20059;-60
2021/12/11 06:09:52;;;;;;;14.60;1.58;;;;;;;7.86;75.93;101165.38;5050250;28;20040;-59
2021/12/11 06:12:19;;;;;;;14.60;1.48;;;;;;;7.93;76.30;101165.59;5052227;28;20127;-60
2021/12/11 06:14:46;;;;;;;12.70;1.40;;;;;;;8.01;76.19;101171.88;5046669;28;20475;-60
2021/12/11 06:17:15;;;;;;;8.40;1.70;;;;;;;8.07;76.01;101173.78;5053868;28;20048;-60
2021/12/11 06:19:44;;;;;;;10.60;1.42;;;;;;;8.02;75.50;101176.25;5046080;28;20497;-61
2021/12/11 06:22:09;;;;;;;10.40;1.30;;;;;;;8.05;75.74;101191.91;5055807;28;20052;-60
2021/12/11 06:24:34;;;;;;;9.77;1.13;;;;;;;8.05;75.33;101199.69;5058613;28;20458;-60
2021/12/11 06:27:00;;;;;;;13.60;1.30;;;;;;;8.08;75.42;101211.88;5061610;28;20802;-60
2021/12/11 06:29:26;;;;;;;8.85;1.10;;;;;;;8.10;74.94;101213.72;5046320;28;21147;-62
2021/12/11 06:31:52;;;;;;;9.80;1.13;;;;;;;8.09;74.86;101222.31;5055376;28;20445;-60
2021/12/11 06:34:18;;;;;;;12.45;1.20;;;;;;;8.18;74.96;101228.59;5057885;28;20368;-60
2021/12/11 06:36:44;;;;;;;9.70;1.40;;;;;;;8.20;75.15;101234.72;5056141;28;20392;-61
2021/12/11 06:39:15;;;;;;;8.70;1.23;;;;;;;8.33;75.02;101248.16;5050401;28;20062;-61
2021/12/11 06:41:43;;;;;;;8.77;1.20;;;;;;;8.30;75.13;101247.13;5047569;28;20555;-60
2021/12/11 06:44:09;;;;;;;9.15;1.20;;;;;;;8.23;75.12;101255.63;5051988;28;20036;-60
2021/12/11 06:46:35;;;;;;;7.85;1.10;;;;;;;8.25;75.23;101249.59;5057258;28;20644;-61
2021/12/11 06:49:03;;;;;;;9.73;1.42;;;;;;;8.14;74.87;101251.91;5042157;28;20672;-60
2021/12/11 06:51:28;;;;;;;15.27;1.40;;;;;;;8.13;74.81;101264.84;5050658;28;20570;-60
2021/12/11 06:53:58;;;;;;;8.13;1.48;;;;;;;8.11;74.99;101269.13;5039179;28;20039;-60
2021/12/11 06:56:24;;;;;;;10.82;1.63;;;;;;;8.06;74.75;101278.47;5053749;28;20034;-60
2021/12/11 06:58:51;;;;;;;9.70;1.90;;;;;;;7.97;74.50;101286.00;5043771;28;20056;-60
2021/12/11 07:01:18;;;;;;;9.82;1.80;;;;;;;7.86;74.60;101292.59;5064202;28;20090;-59
2021/12/11 07:03:44;;;;;;;7.78;1.92;;;;;;;7.87;74.85;101300.38;5029007;28;20465;-60
2021/12/11 07:06:10;;;;;;;10.65;2.80;;;;;;;7.82;75.08;101308.88;5054841;28;20040;-61
2021/12/11 07:08:38;;;;;;;8.27;2.90;;;;;;;7.84;75.06;101312.41;5028596;28;20046;-60
2021/12/11 07:11:05;;;;;;;10.13;2.70;;;;;;;7.80;75.44;101320.94;5057333;28;20420;-60
2021/12/11 07:13:30;;;;;;;14.13;3.40;;;;;;;7.71;75.60;101319.81;5039048;28;20052;-60
2021/12/11 07:15:56;;;;;;;11.02;3.45;;;;;;;7.67;75.58;101330.06;5050753;28;20047;-60
2021/12/11 07:18:23;;;;;;;10.32;3.45;;;;;;;7.66;75.57;101339.53;5047298;28;20028;-61
2021/12/11 07:20:49;;;;;;;11.18;3.67;;;;;;;7.58;75.62;101346.19;5041124;28;20435;-59
2021/12/11 07:23:14;;;;;;;11.63;4.18;;;;;;;7.63;76.30;101348.91;5053240;28;20036;-61
2021/12/11 07:25:47;;;;;;;10.73;4.70;;;;;;;7.78;75.81;101354.63;5049066;28;20550;-60
2021/12/11 07:28:12;;;;;;;10.45;4.53;;;;;;;7.84;75.34;101360.00;5046346;28;20075;-60
2021/12/11 07:30:40;;;;;;;10.95;4.68;;;;;;;7.88;75.31;101359.28;5056301;28;20201;-61
2021/12/11 07:33:06;;;;;;;11.70;4.88;;;;;;;7.90;75.18;101370.59;5052406;28;20354;-61
2021/12/11 07:35:33;;;;;;;14.45;5.65;;;;;;;7.94;74.76;101371.56;5048942;28;20480;-60
2021/12/11 07:37:59;;;;;;;15.75;5.72;;;;;;;8.01;74.51;101381.31;5052761;28;20301;-60
2021/12/11 07:40:27;;;;;;;12.45;5.38;;;;;;;7.97;74.49;101388.13;5053079;28;20040;-61
2021/12/11 07:42:53;;;;;;;12.35;5.30;;;;;;;7.90;74.08;101396.56;5044621;28;20531;-59
2021/12/11 07:45:20;;;;;;;15.45;5.40;;;;;;;7.86;74.03;101396.41;5034312;28;20043;-61
2021/12/11 07:47:45;;;;;;;12.00;5.38;;;;;;;7.74;74.16;101407.28;5028119;28;20040;-61
2021/12/11 07:50:11;;;;;;;17.25;6.20;;;;;;;7.60;74.41;101406.81;5038365;28;20068;-60
2021/12/11 07:52:37;;;;;;;15.73;6.00;;;;;;;7.55;74.25;101418.75;5057787;28;20127;-60
2021/12/11 07:55:04;;;;;;;15.70;5.63;;;;;;;7.51;74.63;101416.84;5058669;28;20049;-60
2021/12/11 07:57:40;;;;;;;18.35;6.55;;;;;;;7.44;74.94;101427.00;5045991;28;20047;-61
2021/12/11 08:00:10;;;;;;;15.05;6.28;;;;;;;7.50;74.81;101432.41;5063430;28;20051;-60
2021/12/11 08:02:36;;;;;;;15.95;6.93;;;;;;;7.50;75.02;101430.66;5056376;28;20115;-59
2021/12/11 08:05:03;;;;;;;21.25;6.97;;;;;;;7.56;75.19;101440.41;5030921;28;20081;-60
2021/12/11 08:07:29;;;;;;;18.00;7.03;;;;;;;7.57;75.18;101444.72;5039390;28;20131;-60
2021/12/11 08:09:54;;;;;;;19.33;7.63;;;;;;;7.62;75.32;101451.84;5050574;28;20055;-60
2021/12/11 08:12:19;;;;;;;18.48;7.30;;;;;;;7.68;75.32;101459.81;5020364;28;20048;-60
2021/12/11 08:14:45;;;;;;;14.95;6.80;;;;;;;7.75;75.55;101464.41;5049902;28;20036;-60
2021/12/11 08:17:11;;;;;;;16.77;6.95;;;;;;;7.82;75.47;101465.50;5048007;28;20048;-60
2021/12/11 08:19:36;;;;;;;17.08;7.32;;;;;;;7.79;75.09;101473.19;5047053;28;20122;-60
2021/12/11 08:22:05;;;;;;;20.10;7.70;;;;;;;7.80;75.22;101474.97;5052264;28;20511;-60
2021/12/11 08:24:31;;;;;;;18.05;7.82;;;;;;;7.80;75.31;101480.16;5048050;28;20559;-60
2021/12/11 08:27:06;;;;;;;19.90;7.60;;;;;;;7.82;75.03;101483.66;5036918;28;20048;-60
2021/12/11 08:29:31;;;;;;;;;;;;;;;7.85;75.26;101490.69;5047654;28;20158;-60
2021/12/11 08:31:58;;;;;;;15.00;7.30;;;;;;;7.93;75.12;101497.88;5053194;28;19920;-60
2021/12/11 08:34:24;;;;;;;19.48;7.60;;;;;;;7.87;74.85;101496.81;5047592;28;20451;-61
2021/12/11 08:36:51;;;;;;;24.45;9.13;;;;;;;7.83;75.11;101500.13;5048991;28;20040;-60
2021/12/11 08:39:17;;;;;;;20.63;9.07;;;;;;;7.84;75.12;101501.91;5053169;28;20044;-59
2021/12/11 08:41:44;;;;;;;23.10;9.25;;;;;;;7.82;75.06;101499.25;5055759;28;21326;-61
2021/12/11 08:44:13;;;;;;;30.48;10.70;;;;;;;7.80;74.86;101503.53;5044252;28;20417;-61
2021/12/11 08:46:43;;;;;;;23.98;8.73;;;;;;;7.80;75.01;101507.81;5046584;28;20070;-61
2021/12/11 08:49:17;;;;;;;21.05;9.23;;;;;;;7.78;74.78;101515.56;5047263;28;20143;-59
2021/12/11 08:51:52;;;;;;;27.88;11.57;;;;;;;7.70;74.99;101524.78;5044546;28;20123;-61
2021/12/11 08:54:19;;;;;;;25.15;10.48;;;;;;;7.69;75.11;101525.59;5051752;28;20071;-61
2021/12/11 08:56:45;;;;;;;28.08;11.93;;;;;;;7.75;75.42;101541.38;5047480;28;20060;-61
2021/12/11 08:59:15;;;;;;;29.85;11.70;;;;;;;7.87;75.34;101538.38;5046949;28;20055;-60
2021/12/11 09:01:53;;;;;;;29.15;11.75;;;;;;;8.09;75.52;101549.53;5051428;28;20136;-59
2021/12/11 09:04:29;;;;;;;26.55;11.25;;;;;;;8.30;75.42;101554.56;5047003;28;20040;-60
2021/12/11 09:07:08;;;;;;;26.05;11.30;;;;;;;8.42;74.99;101549.78;5029692;28;20055;-61
2021/12/11 09:09:50;;;;;;;27.00;12.35;;;;;;;8.49;74.29;101563.88;5055500;28;20518;-61
2021/12/11 09:12:22;;;;;;;26.15;11.75;;;;;;;8.49;73.60;101564.75;5061213;28;20044;-61
2021/12/11 09:14:51;;;;;;;29.58;12.85;;;;;;;8.41;73.22;101562.75;5047488;28;20472;-60
2021/12/11 09:17:33;;;;;;;28.63;12.77;;;;;;;8.29;73.33;101555.41;5044471;28;20115;-60
2021/12/11 09:20:21;;;;;;;29.60;12.60;;;;;;;8.23;73.42;101554.31;5027447;28;20036;-60
2021/12/11 09:23:15;;;;;;;31.65;12.93;;;;;;;8.22;73.67;101563.81;5054401;28;20071;-60
2021/12/11 09:25:55;;;;;;;25.92;12.10;;;;;;;8.26;73.85;101564.78;5052058;28;20462;-60
2021/12/11 09:28:34;;;;;;;32.40;13.35;;;;;;;8.28;73.84;101571.81;5062962;27;20123;-60
2021/12/11 09:31:08;;;;;;;28.75;12.77;;;;;;;8.33;74.04;101579.78;5041921;28;20528;-60
2021/12/11 09:33:37;;;;;;;28.73;11.95;;;;;;;8.36;73.74;101590.28;5053944;28;20410;-61
2021/12/11 09:36:11;;;;;;;26.88;11.75;;;;;;;8.39;73.91;101591.28;5035089;28;20988;-60
2021/12/11 09:38:43;;;;;;;31.20;12.40;;;;;;;8.44;73.70;101589.72;5043157;28;20869;-60
2021/12/11 09:41:21;;;;;;;23.60;11.07;;;;;;;8.48;73.83;101586.38;5061323;28;20046;-60
2021/12/11 09:43:52;;;;;;;29.55;11.38;;;;;;;8.53;73.73;101589.13;5055474;28;20403;-61
2021/12/11 09:46:23;;;;;;;26.48;11.35;;;;;;;8.58;73.07;101597.09;5047442;28;20950;-60
2021/12/11 09:48:51;;;;;;;24.75;11.23;;;;;;;8.59;72.85;101598.84;5052821;28;20165;-61
2021/12/11 09:51:20;;;;;;;25.85;10.68;;;;;;;8.62;72.55;101604.13;5052527;28;20036;-60
2021/12/11 09:53:50;;;;;;;25.70;11.07;;;;;;;8.63;72.64;101601.59;5038519;28;20044;-59
2021/12/11 09:56:32;;;;;;;23.17;9.93;;;;;;;8.67;72.77;101605.16;5044471;28;20458;-62
2021/12/11 09:58:59;;;;;;;22.67;10.18;;;;;;;8.71;72.35;101617.44;5050445;28;21266;-60
2021/12/11 10:01:31;;;;;;;23.38;9.98;;;;;;;8.75;72.56;101621.91;5053447;28;20032;-59
2021/12/11 10:04:05;;;;;;;24.27;10.85;;;;;;;8.80;72.52;101623.81;5044783;28;20070;-60
2021/12/11 10:06:44;;;;;;;21.60;10.47;;;;;;;8.82;72.68;101626.47;5048010;28;20035;-61
2021/12/11 10:09:18;;;;;;;23.00;10.43;;;;;;;8.86;72.51;101629.22;5043876;28;20068;-60
2021/12/11 10:12:03;;;;;;;20.10;9.63;;;;;;;8.89;72.41;101629.31;5044972;28;20075;-62
2021/12/11 10:14:34;;;;;;;18.42;8.50;;;;;;;8.90;72.66;101643.22;5037707;28;20040;-59
2021/12/11 10:17:03;;;;;;;20.35;9.82;;;;;;;8.90;72.79;101646.66;5054642;28;20389;-60
2021/12/11 10:19:29;;;;;;;23.15;9.82;;;;;;;8.92;72.36;101649.31;5052455;28;20032;-60
2021/12/11 10:22:27;;;;;;;25.88;9.65;;;;;;;8.92;72.81;101645.00;5056356;28;20063;-61
2021/12/11 10:24:53;;;;;;;21.38;9.00;;;;;;;9.00;72.50;101652.19;5048812;28;20386;-61
2021/12/11 10:27:22;;;;;;;18.55;8.85;;;;;;;9.00;72.48;101646.97;5048328;28;20772;-61
2021/12/11 10:29:49;;;;;;;23.27;8.75;;;;;;;9.00;72.81;101646.97;5046522;28;20036;-61
2021/12/11 10:32:21;;;;;;;16.75;7.10;;;;;;;9.03;72.50;101653.16;5034963;28;20101;-61
2021/12/11 10:34:50;;;;;;;21.63;7.68;;;;;;;9.03;72.86;101654.88;5048524;28;20142;-60
2021/12/11 10:37:20;;;;;;;16.08;6.97;;;;;;;9.03;72.84;101657.47;5035301;28;20036;-60
2021/12/11 10:39:49;;;;;;;16.27;7.28;;;;;;;9.06;72.58;101660.19;5038349;28;20059;-59
2021/12/11 10:42:14;;;;;;;15.52;7.28;;;;;;;9.14;72.75;101663.91;5054606;28;20101;-59
2021/12/11 10:44:45;;;;;;;16.02;7.45;;;;;;;9.20;72.83;101669.31;5040662;28;20044;-61
2021/12/11 10:47:18;;;;;;;15.13;6.95;;;;;;;9.38;72.74;101669.88;5043580;28;20055;-60
2021/12/11 10:49:46;;;;;;;17.00;6.30;;;;;;;9.51;72.78;101665.94;5044405;28;20136;-60
2021/12/11 10:52:18;;;;;;;15.20;6.00;;;;;;;9.55;71.93;101668.66;5039952;28;20217;-60
2021/12/11 10:54:46;;;;;;;11.52;5.55;;;;;;;9.63;71.25;101674.13;5036749;28;20460;-60
2021/12/11 10:57:12;;;;;;;15.70;4.88;;;;;;;9.69;70.93;101674.31;5044582;28;20108;-60
2021/12/11 10:59:40;;;;;;;14.30;5.40;;;;;;;9.75;71.05;101670.16;5044712;28;20503;-60
2021/12/11 11:02:08;;;;;;;12.60;5.32;;;;;;;9.93;71.31;101675.00;5047147;28;20314;-60
2021/12/11 11:04:39;;;;;;;14.80;7.15;;;;;;;10.15;72.03;101681.69;5044997;28;20151;-60
2021/12/11 11:07:04;;;;;;;18.02;8.02;;;;;;;10.37;71.74;101688.44;5018654;28;20041;-60
2021/12/11 11:09:30;;;;;;;15.15;7.55;;;;;;;10.47;70.82;101693.03;5032750;28;20167;-60
2021/12/11 11:11:58;;;;;;;23.48;8.70;;;;;;;10.43;70.24;101692.06;5057432;28;20123;-60
2021/12/11 11:14:24;;;;;;;19.75;8.55;;;;;;;10.39;70.47;101690.22;5053627;28;20032;-60
2021/12/11 11:16:55;;;;;;;20.55;8.70;;;;;;;10.27;70.45;101689.88;5054926;28;20457;-59
2021/12/11 11:19:22;;;;;;;20.23;8.13;;;;;;;10.21;71.11;101691.44;5056908;28;20454;-61
2021/12/11 11:21:50;;;;;;;18.75;7.28;;;;;;;10.12;71.30;101698.13;5043278;28;20044;-60
2021/12/11 11:24:17;;;;;;;16.95;7.00;;;;;;;10.10;71.50;101705.03;5055497;28;20454;-60
2021/12/11 11:26:45;;;;;;;16.58;6.38;;;;;;;10.08;71.65;101700.59;5043794;28;20392;-59
2021/12/11 11:29:15;;;;;;;14.73;5.70;;;;;;;10.07;71.83;101701.44;5053761;28;20052;-60
2021/12/11 11:31:42;;;;;;;13.82;4.50;;;;;;;10.05;71.56;101708.34;5058653;28;20067;-60
2021/12/11 11:34:12;;;;;;;16.73;3.80;;;;;;;10.06;71.58;101704.91;5043514;28;20571;-59
2021/12/11 11:36:37;;;;;;;20.45;3.95;;;;;;;10.05;71.41;101701.41;5054284;28;20455;-60
2021/12/11 11:39:06;;;;;;;16.23;3.50;;;;;;;9.90;70.81;101716.59;5052904;28;20046;-60
2021/12/11 11:41:54;;;;;;;17.05;3.10;;;;;;;9.85;71.55;101719.91;5062251;28;20048;-60
2021/12/11 11:44:24;;;;;;;13.63;3.08;;;;;;;9.85;71.56;101725.97;5045743;28;20131;-60
2021/12/11 11:46:50;;;;;;;12.95;3.03;;;;;;;9.82;71.67;101728.47;5051911;28;20149;-60